Time,TemperatureF,DewpointF,PressureIn,WindDirection,WindDirectionDegrees,WindSpeedMPH,WindSpeedGustMPH,Humidity,HourlyPrecipIn,Conditions,Clouds,dailyrainin,SoftwareType,DateUTC
2013-02-14 00:00:00,30.9,23.3,30.27,South,174,6.0,9.0,73,0.00,,,0.01,VWS V14.01,2013-02-14 07:00:00,
2013-02-14 00:05:00,31.9,23.6,30.27,South,173,7.0,9.0,71,0.00,,,0.00,VWS V14.01,2013-02-14 07:05:00,
2013-02-14 00:10:00,32.6,23.6,30.27,South,176,8.0,11.0,69,0.00,,,0.00,VWS V14.01,2013-02-14 07:10:00,
2013-02-14 00:15:00,33.1,23.4,30.28,South,173,4.0,11.0,67,0.00,,,0.00,VWS V14.01,2013-02-14 07:15:00,
2013-02-14 00:20:00,32.7,23.3,30.28,South,172,10.0,12.0,68,0.00,,,0.00,VWS V14.01,2013-02-14 07:20:00,
2013-02-14 00:25:00,33.1,23.4,30.28,South,183,8.0,12.0,67,0.00,,,0.00,VWS V14.01,2013-02-14 07:25:00,
2013-02-14 00:30:00,33.5,23.4,30.29,South,178,9.0,12.0,66,0.00,,,0.00,VWS V14.01,2013-02-14 07:30:00,
2013-02-14 00:35:00,33.8,23.3,30.29,South,183,5.0,12.0,65,0.00,,,0.00,VWS V14.01,2013-02-14 07:35:00,
2013-02-14 00:40:00,33.6,23.1,30.30,South,173,8.0,12.0,65,0.00,,,0.00,VWS V14.01,2013-02-14 07:40:00,
2013-02-14 00:45:00,33.4,22.9,30.30,South,171,7.0,12.0,65,0.00,,,0.00,VWS V14.01,2013-02-14 07:45:00,
2013-02-14 00:50:00,33.2,22.7,30.30,South,170,8.0,12.0,65,0.00,,,0.00,VWS V14.01,2013-02-14 07:50:00,
2013-02-14 00:55:00,33.2,22.7,30.31,South,170,4.0,12.0,65,0.00,,,0.00,VWS V14.01,2013-02-14 07:55:00,
2013-02-14 01:00:00,33.4,22.5,30.31,South,172,7.0,12.0,64,0.00,,,0.00,VWS V14.01,2013-02-14 08:00:00,
2013-02-14 01:05:00,33.3,22.8,30.31,SSE,161,6.0,10.0,65,0.00,,,0.00,VWS V14.01,2013-02-14 08:05:00,
2013-02-14 01:10:00,33.1,22.6,30.31,SSE,166,7.0,10.0,65,0.00,,,0.00,VWS V14.01,2013-02-14 08:10:00,
2013-02-14 01:15:00,33.2,22.7,30.31,South,170,7.0,11.0,65,0.00,,,0.00,VWS V14.01,2013-02-14 08:15:00,
2013-02-14 01:20:00,32.8,22.3,30.32,SSE,168,8.0,11.0,65,0.00,,,0.00,VWS V14.01,2013-02-14 08:20:00,
2013-02-14 01:25:00,32.8,22.3,30.32,SSW,205,3.0,11.0,65,0.00,,,0.00,VWS V14.01,2013-02-14 08:25:00,
2013-02-14 01:30:00,33.0,22.2,30.32,South,180,4.0,11.0,64,0.00,,,0.00,VWS V14.01,2013-02-14 08:30:00,
2013-02-14 01:35:00,33.2,22.4,30.32,South,180,5.0,8.0,64,0.00,,,0.00,VWS V14.01,2013-02-14 08:35:00,
2013-02-14 01:40:00,33.1,22.3,30.33,South,178,5.0,9.0,64,0.00,,,0.00,VWS V14.01,2013-02-14 08:40:00,
2013-02-14 01:45:00,33.1,22.3,30.33,South,179,8.0,10.0,64,0.00,,,0.00,VWS V14.01,2013-02-14 08:45:00,
2013-02-14 01:50:00,33.0,22.2,30.33,South,180,4.0,10.0,64,0.00,,,0.00,VWS V14.01,2013-02-14 08:50:00,
2013-02-14 01:55:00,32.9,22.1,30.33,South,173,6.0,10.0,64,0.00,,,0.00,VWS V14.01,2013-02-14 08:55:00,
2013-02-14 02:00:00,32.9,22.1,30.33,SSW,192,5.0,10.0,64,0.00,,,0.00,VWS V14.01,2013-02-14 09:00:00,
2013-02-14 02:05:00,32.7,21.9,30.33,South,188,5.0,8.0,64,0.00,,,0.00,VWS V14.01,2013-02-14 09:05:00,
2013-02-14 02:10:00,32.8,22.0,30.33,SSE,167,9.0,12.0,64,0.00,,,0.00,VWS V14.01,2013-02-14 09:10:00,
2013-02-14 02:15:00,33.1,21.9,30.33,South,190,5.0,15.0,63,0.00,,,0.00,VWS V14.01,2013-02-14 09:15:00,
2013-02-14 02:20:00,33.2,22.0,30.33,South,189,4.0,15.0,63,0.00,,,0.00,VWS V14.01,2013-02-14 09:20:00,
2013-02-14 02:25:00,33.2,22.0,30.33,South,169,4.0,15.0,63,0.00,,,0.00,VWS V14.01,2013-02-14 09:25:00,
2013-02-14 02:30:00,32.7,21.5,30.33,South,170,5.0,15.0,63,0.00,,,0.00,VWS V14.01,2013-02-14 09:30:00,
2013-02-14 02:35:00,32.5,21.7,30.33,South,171,7.0,9.0,64,0.00,,,0.00,VWS V14.01,2013-02-14 09:35:00,
2013-02-14 02:40:00,32.6,21.4,30.33,South,181,5.0,11.0,63,0.00,,,0.00,VWS V14.01,2013-02-14 09:40:00,
2013-02-14 02:45:00,32.6,21.4,30.33,South,182,7.0,11.0,63,0.00,,,0.00,VWS V14.01,2013-02-14 09:45:00,
2013-02-14 02:50:00,32.4,21.6,30.33,South,169,8.0,11.0,64,0.00,,,0.00,VWS V14.01,2013-02-14 09:50:00,
2013-02-14 02:55:00,32.4,21.6,30.33,SSE,158,10.0,11.0,64,0.00,,,0.00,VWS V14.01,2013-02-14 09:55:00,
2013-02-14 03:00:00,32.6,21.4,30.34,SSE,162,9.0,11.0,63,0.00,,,0.00,VWS V14.01,2013-02-14 10:00:00,
2013-02-14 03:05:00,32.2,21.4,30.34,SSE,163,5.0,8.0,64,0.00,,,0.00,VWS V14.01,2013-02-14 10:05:00,
2013-02-14 03:10:00,31.9,21.5,30.34,SSE,168,2.0,9.0,65,0.00,,,0.00,VWS V14.01,2013-02-14 10:10:00,
2013-02-14 03:15:00,31.6,21.6,30.34,South,169,4.0,10.0,66,0.00,,,0.00,VWS V14.01,2013-02-14 10:15:00,
2013-02-14 03:20:00,31.5,21.5,30.34,South,169,6.0,10.0,66,0.00,,,0.00,VWS V14.01,2013-02-14 10:20:00,
2013-02-14 03:25:00,31.2,21.5,30.34,SSE,166,6.0,10.0,67,0.00,,,0.00,VWS V14.01,2013-02-14 10:25:00,
2013-02-14 03:30:00,31.3,21.6,30.34,SSE,162,2.0,10.0,67,0.00,,,0.00,VWS V14.01,2013-02-14 10:30:00,
2013-02-14 03:35:00,30.7,21.4,30.35,SSE,164,5.0,8.0,68,0.00,,,0.00,VWS V14.01,2013-02-14 10:35:00,
2013-02-14 03:40:00,30.6,21.3,30.35,SSE,164,1.0,8.0,68,0.00,,,0.00,VWS V14.01,2013-02-14 10:40:00,
2013-02-14 03:45:00,30.2,21.6,30.35,SSE,164,6.0,9.0,70,0.00,,,0.00,VWS V14.01,2013-02-14 10:45:00,
2013-02-14 03:50:00,30.5,21.6,30.34,SSE,164,8.0,9.0,69,0.00,,,0.00,VWS V14.01,2013-02-14 10:50:00,
2013-02-14 03:55:00,30.9,21.6,30.35,SSE,165,6.0,9.0,68,0.00,,,0.00,VWS V14.01,2013-02-14 10:55:00,
2013-02-14 04:00:00,30.9,21.6,30.35,SSE,166,6.0,9.0,68,0.00,,,0.00,VWS V14.01,2013-02-14 11:00:00,
2013-02-14 04:05:00,30.8,21.5,30.35,South,169,4.0,7.0,68,0.00,,,0.00,VWS V14.01,2013-02-14 11:05:00,
2013-02-14 04:10:00,29.5,20.9,30.35,South,169,2.0,8.0,70,0.00,,,0.00,VWS V14.01,2013-02-14 11:10:00,
2013-02-14 04:15:00,29.4,21.2,30.35,South,170,6.0,8.0,71,0.00,,,0.00,VWS V14.01,2013-02-14 11:15:00,
2013-02-14 04:20:00,29.9,21.3,30.35,South,169,5.0,8.0,70,0.00,,,0.00,VWS V14.01,2013-02-14 11:20:00,
2013-02-14 04:25:00,30.4,21.8,30.35,South,170,5.0,9.0,70,0.00,,,0.00,VWS V14.01,2013-02-14 11:25:00,
2013-02-14 04:30:00,29.7,20.8,30.35,South,170,5.0,9.0,69,0.00,,,0.00,VWS V14.01,2013-02-14 11:30:00,
2013-02-14 04:35:00,28.2,20.4,30.36,South,170,6.0,7.0,72,0.00,,,0.00,VWS V14.01,2013-02-14 11:35:00,
2013-02-14 04:40:00,27.0,20.1,30.36,South,177,6.0,8.0,75,0.00,,,0.00,VWS V14.01,2013-02-14 11:40:00,
2013-02-14 04:45:00,26.0,20.1,30.36,South,177,4.0,8.0,78,0.00,,,0.00,VWS V14.01,2013-02-14 11:45:00,
2013-02-14 04:50:00,25.4,19.8,30.36,South,177,0.0,8.0,79,0.00,,,0.00,VWS V14.01,2013-02-14 11:50:00,
2013-02-14 04:55:00,24.9,19.6,30.36,South,177,6.0,8.0,80,0.00,,,0.00,VWS V14.01,2013-02-14 11:55:00,
2013-02-14 05:00:00,26.2,20.9,30.37,South,177,1.0,8.0,80,0.00,,,0.00,VWS V14.01,2013-02-14 12:00:00,
2013-02-14 05:05:00,28.4,21.8,30.37,South,179,10.0,11.0,76,0.00,,,0.00,VWS V14.01,2013-02-14 12:05:00,
2013-02-14 05:10:00,30.2,21.9,30.37,South,177,5.0,11.0,71,0.00,,,0.00,VWS V14.01,2013-02-14 12:10:00,
2013-02-14 05:15:00,30.7,21.8,30.37,SSE,167,8.0,11.0,69,0.00,,,0.00,VWS V14.01,2013-02-14 12:15:00,
2013-02-14 05:21:00,31.1,21.8,30.38,South,173,6.0,11.0,68,0.00,,,0.00,VWS V14.01,2013-02-14 12:21:00,
2013-02-14 05:26:00,31.1,21.4,30.38,South,180,5.0,12.0,67,0.00,,,0.00,VWS V14.01,2013-02-14 12:26:00,
2013-02-14 05:31:00,31.0,21.3,30.38,South,176,7.0,12.0,67,0.00,,,0.00,VWS V14.01,2013-02-14 12:31:00,
2013-02-14 05:36:00,30.9,21.2,30.38,South,176,6.0,12.0,67,0.00,,,0.00,VWS V14.01,2013-02-14 12:36:00,
2013-02-14 05:41:00,30.9,23.0,30.38,South,171,8.0,12.0,72,0.00,,,0.00,VWS V14.01,2013-02-14 12:41:00,
2013-02-14 05:46:00,30.8,21.1,30.38,South,173,6.0,12.0,67,0.00,,,0.00,VWS V14.01,2013-02-14 12:46:00,
2013-02-14 05:50:00,30.7,21.1,30.38,South,172,8.0,12.0,67,0.00,,,0.00,VWS V14.01,2013-02-14 12:50:00,
2013-02-14 05:56:00,31.0,21.3,30.38,South,177,7.0,12.0,67,0.00,,,0.00,VWS V14.01,2013-02-14 12:56:00,
2013-02-14 06:00:00,31.1,21.4,30.38,South,180,5.0,12.0,67,0.00,,,0.00,VWS V14.01,2013-02-14 13:00:00,
2013-02-14 06:05:00,31.1,21.4,30.38,South,175,8.0,8.0,67,0.00,,,0.00,VWS V14.01,2013-02-14 13:05:00,
2013-02-14 06:10:00,30.9,23.0,30.38,South,175,6.0,10.0,72,0.00,,,0.00,VWS V14.01,2013-02-14 13:10:00,
2013-02-14 06:15:00,30.6,21.3,30.38,South,176,9.0,10.0,68,0.00,,,0.00,VWS V14.01,2013-02-14 13:15:00,
2013-02-14 06:20:00,30.6,21.3,30.39,South,179,9.0,10.0,68,0.00,,,0.00,VWS V14.01,2013-02-14 13:20:00,
2013-02-14 06:25:00,30.6,21.3,30.39,South,171,7.0,12.0,68,0.00,,,0.00,VWS V14.01,2013-02-14 13:25:00,
2013-02-14 06:30:00,30.5,21.2,30.39,South,172,6.0,12.0,68,0.00,,,0.00,VWS V14.01,2013-02-14 13:30:00,
2013-02-14 06:35:00,30.6,21.3,30.39,South,173,4.0,10.0,68,0.00,,,0.00,VWS V14.01,2013-02-14 13:35:00,
2013-02-14 06:40:00,30.5,21.2,30.39,South,173,6.0,10.0,68,0.00,,,0.00,VWS V14.01,2013-02-14 13:40:00,
2013-02-14 06:45:00,30.4,21.1,30.39,South,173,2.0,10.0,68,0.00,,,0.00,VWS V14.01,2013-02-14 13:45:00,
2013-02-14 06:50:00,30.0,21.1,30.39,South,173,5.0,10.0,69,0.00,,,0.00,VWS V14.01,2013-02-14 13:50:00,
2013-02-14 06:55:00,30.2,21.6,30.39,South,173,0.0,10.0,70,0.00,,,0.00,VWS V14.01,2013-02-14 13:55:00,
2013-02-14 07:00:00,29.5,20.9,30.40,South,173,4.0,10.0,70,0.00,,,0.00,VWS V14.01,2013-02-14 14:00:00,
2013-02-14 07:05:00,27.4,20.2,30.40,South,173,6.0,7.0,74,0.00,,,0.00,VWS V14.01,2013-02-14 14:05:00,
2013-02-14 07:10:00,26.1,19.9,30.40,South,173,0.0,7.0,77,0.00,,,0.00,VWS V14.01,2013-02-14 14:10:00,
2013-02-14 07:15:00,25.6,20.0,30.40,South,173,0.0,7.0,79,0.00,,,0.00,VWS V14.01,2013-02-14 14:15:00,
2013-02-14 07:20:00,25.8,20.5,30.40,South,173,5.0,7.0,80,0.00,,,0.00,VWS V14.01,2013-02-14 14:20:00,
2013-02-14 07:25:00,27.7,21.8,30.40,South,173,4.0,9.0,78,0.00,,,0.00,VWS V14.01,2013-02-14 14:25:00,
2013-02-14 07:30:00,28.1,21.5,30.40,South,173,4.0,9.0,76,0.00,,,0.00,VWS V14.01,2013-02-14 14:30:00,
2013-02-14 07:35:00,28.8,21.6,30.41,South,173,5.0,6.0,74,0.00,,,0.00,VWS V14.01,2013-02-14 14:35:00,
2013-02-14 07:40:00,29.2,21.6,30.41,South,175,4.0,10.0,73,0.00,,,0.00,VWS V14.01,2013-02-14 14:40:00,
2013-02-14 07:45:00,28.5,21.3,30.41,South,175,5.0,10.0,74,0.00,,,0.00,VWS V14.01,2013-02-14 14:45:00,
2013-02-14 07:50:00,27.4,20.8,30.41,South,175,7.0,10.0,76,0.00,,,0.00,VWS V14.01,2013-02-14 14:50:00,
2013-02-14 07:55:00,28.1,21.5,30.41,South,177,7.0,10.0,76,0.00,,,0.00,VWS V14.01,2013-02-14 14:55:00,
2013-02-14 08:00:00,28.4,21.5,30.41,South,177,5.0,10.0,75,0.00,,,0.00,VWS V14.01,2013-02-14 15:00:00,
2013-02-14 08:05:00,29.2,21.6,30.41,South,177,0.0,8.0,73,0.00,,,0.00,VWS V14.01,2013-02-14 15:05:00,
2013-02-14 08:10:00,28.3,21.4,30.41,South,177,0.0,8.0,75,0.00,,,0.00,VWS V14.01,2013-02-14 15:10:00,
2013-02-14 08:15:00,27.5,21.2,30.41,South,177,0.0,8.0,77,0.00,,,0.00,VWS V14.01,2013-02-14 15:15:00,
2013-02-14 08:20:00,26.8,20.9,30.41,South,177,0.0,8.0,78,0.00,,,0.00,VWS V14.01,2013-02-14 15:20:00,
2013-02-14 08:25:00,26.3,20.7,30.41,South,177,0.0,8.0,79,0.00,,,0.00,VWS V14.01,2013-02-14 15:25:00,
2013-02-14 08:30:00,26.9,21.6,30.41,South,177,2.0,8.0,80,0.00,,,0.00,VWS V14.01,2013-02-14 15:30:00,
2013-02-14 08:35:00,27.2,21.6,30.42,South,177,5.0,6.0,79,0.00,,,0.00,VWS V14.01,2013-02-14 15:35:00,
2013-02-14 08:40:00,27.6,21.4,30.42,South,177,2.0,6.0,77,0.00,,,0.00,VWS V14.01,2013-02-14 15:40:00,
2013-02-14 08:45:00,28.0,21.7,30.42,South,177,0.0,6.0,77,0.00,,,0.00,VWS V14.01,2013-02-14 15:45:00,
2013-02-14 08:50:00,27.4,21.5,30.42,South,177,0.0,6.0,78,0.00,,,0.00,VWS V14.01,2013-02-14 15:50:00,
2013-02-14 08:55:00,27.2,21.3,30.42,South,177,1.0,6.0,78,0.00,,,0.00,VWS V14.01,2013-02-14 15:55:00,
2013-02-14 09:01:00,27.0,21.4,30.42,South,177,0.0,6.0,79,0.00,,,0.00,VWS V14.01,2013-02-14 16:01:00,
2013-02-14 09:06:00,27.0,21.4,30.42,South,177,0.0,0.0,79,0.00,,,0.00,VWS V14.01,2013-02-14 16:06:00,
2013-02-14 09:11:00,27.1,21.8,30.42,South,177,0.0,0.0,80,0.00,,,0.00,VWS V14.01,2013-02-14 16:11:00,
2013-02-14 09:16:00,27.3,22.0,30.42,South,177,0.0,0.0,80,0.00,,,0.00,VWS V14.01,2013-02-14 16:16:00,
2013-02-14 09:21:00,27.4,21.8,30.42,South,177,0.0,2.0,79,0.00,,,0.00,VWS V14.01,2013-02-14 16:21:00,
2013-02-14 09:26:00,27.6,22.2,30.43,South,177,0.0,4.0,80,0.00,,,0.00,VWS V14.01,2013-02-14 16:26:00,
2013-02-14 09:31:00,27.8,22.4,30.43,South,177,0.0,4.0,80,0.00,,,0.00,VWS V14.01,2013-02-14 16:31:00,
2013-02-14 09:36:00,28.3,22.6,30.43,South,177,5.0,8.0,79,0.00,,,0.00,VWS V14.01,2013-02-14 16:36:00,
2013-02-14 09:41:00,29.6,23.6,30.43,South,177,6.0,8.0,78,0.00,,,0.00,VWS V14.01,2013-02-14 16:41:00,
2013-02-14 09:46:00,30.9,23.0,30.43,South,190,7.0,11.0,72,0.00,,,0.00,VWS V14.01,2013-02-14 16:46:00,
2013-02-14 09:51:00,32.0,23.0,30.43,SSW,199,7.0,11.0,69,0.00,,,0.00,VWS V14.01,2013-02-14 16:51:00,
2013-02-14 09:56:00,32.4,23.0,30.43,South,182,6.0,12.0,68,0.00,,,0.00,VWS V14.01,2013-02-14 16:56:00,
2013-02-14 10:01:00,32.6,22.9,30.43,SSW,204,6.0,12.0,67,0.00,,,0.00,VWS V14.01,2013-02-14 17:01:00,
2013-02-14 10:06:00,32.8,23.1,30.43,SSW,192,5.0,10.0,67,0.00,,,0.00,VWS V14.01,2013-02-14 17:06:00,
2013-02-14 10:11:00,33.0,22.9,30.44,SW,219,5.0,11.0,66,0.00,,,0.00,VWS V14.01,2013-02-14 17:11:00,
2013-02-14 10:16:00,33.2,22.7,30.44,South,191,9.0,12.0,65,0.00,,,0.00,VWS V14.01,2013-02-14 17:16:00,
2013-02-14 10:21:00,33.3,22.8,30.44,SW,217,11.0,12.0,65,0.00,,,0.00,VWS V14.01,2013-02-14 17:21:00,
2013-02-14 10:26:00,33.3,23.2,30.44,SSW,207,6.0,12.0,66,0.00,,,0.00,VWS V14.01,2013-02-14 17:26:00,
2013-02-14 10:31:00,33.4,22.5,30.44,SSW,204,12.0,16.0,64,0.00,,,0.00,VWS V14.01,2013-02-14 17:31:00,
2013-02-14 10:36:00,33.5,23.0,30.44,SSW,212,10.0,15.0,65,0.00,,,0.00,VWS V14.01,2013-02-14 17:36:00,
2013-02-14 10:41:00,33.7,22.8,30.43,SSW,209,12.0,15.0,64,0.00,,,0.00,VWS V14.01,2013-02-14 17:41:00,
2013-02-14 10:46:00,33.9,23.0,30.43,WSW,237,11.0,15.0,64,0.00,,,0.00,VWS V14.01,2013-02-14 17:46:00,
2013-02-14 10:50:00,33.9,23.0,30.44,SW,219,9.0,16.0,64,0.00,,,0.00,VWS V14.01,2013-02-14 17:50:00,
2013-02-14 10:55:00,34.0,23.1,30.44,SW,216,11.0,16.0,64,0.00,,,0.00,VWS V14.01,2013-02-14 17:55:00,
2013-02-14 11:00:00,34.3,23.4,30.44,SSW,212,13.0,16.0,64,0.00,,,0.00,VWS V14.01,2013-02-14 18:00:00,
2013-02-14 11:05:00,34.4,22.7,30.44,SW,219,8.0,15.0,62,0.00,,,0.00,VWS V14.01,2013-02-14 18:05:00,
2013-02-14 11:10:00,34.4,22.4,30.44,SSW,207,9.0,17.0,61,0.00,,,0.00,VWS V14.01,2013-02-14 18:10:00,
2013-02-14 11:15:00,34.6,22.9,30.44,SSW,209,9.0,17.0,62,0.00,,,0.00,VWS V14.01,2013-02-14 18:15:00,
2013-02-14 11:20:00,35.0,23.3,30.44,SW,217,9.0,17.0,62,0.00,,,0.00,VWS V14.01,2013-02-14 18:20:00,
2013-02-14 11:25:00,35.1,23.0,30.44,SSW,194,8.0,17.0,61,0.00,,,0.00,VWS V14.01,2013-02-14 18:25:00,
2013-02-14 11:30:00,35.6,23.5,30.44,SW,215,7.0,17.0,61,0.00,,,0.00,VWS V14.01,2013-02-14 18:30:00,
2013-02-14 11:35:00,35.6,23.1,30.44,SSW,208,10.0,14.0,60,0.00,,,0.00,VWS V14.01,2013-02-14 18:35:00,
2013-02-14 11:40:00,35.5,22.6,30.44,SW,221,10.0,14.0,59,0.00,,,0.00,VWS V14.01,2013-02-14 18:40:00,
2013-02-14 11:45:00,35.6,23.1,30.44,SSW,211,14.0,16.0,60,0.00,,,0.00,VWS V14.01,2013-02-14 18:45:00,
2013-02-14 11:50:00,35.7,22.8,30.44,SW,214,9.0,16.0,59,0.00,,,0.00,VWS V14.01,2013-02-14 18:50:00,
2013-02-14 11:55:00,35.8,22.9,30.44,SW,225,10.0,16.0,59,0.00,,,0.00,VWS V14.01,2013-02-14 18:55:00,
2013-02-14 12:00:00,35.9,23.0,30.44,SW,218,10.0,16.0,59,0.00,,,0.00,VWS V14.01,2013-02-14 19:00:00,
2013-02-14 12:05:00,36.5,23.5,30.44,WSW,254,11.0,12.0,59,0.00,,,0.00,VWS V14.01,2013-02-14 19:05:00,
2013-02-14 12:10:00,37.0,22.8,30.44,SSW,202,10.0,16.0,56,0.00,,,0.00,VWS V14.01,2013-02-14 19:10:00,
2013-02-14 12:15:00,37.3,23.1,30.44,SSW,192,10.0,16.0,56,0.00,,,0.00,VWS V14.01,2013-02-14 19:15:00,
2013-02-14 12:20:00,38.2,23.5,30.44,South,186,10.0,16.0,55,0.00,,,0.00,VWS V14.01,2013-02-14 19:20:00,
2013-02-14 12:25:00,38.2,22.6,30.44,SSW,198,9.0,17.0,53,0.00,,,0.00,VWS V14.01,2013-02-14 19:25:00,
2013-02-14 12:30:00,38.4,22.8,30.44,SW,228,13.0,17.0,53,0.00,,,0.00,VWS V14.01,2013-02-14 19:30:00,
2013-02-14 12:35:00,37.9,21.9,30.43,SSW,213,14.0,20.0,52,0.00,,,0.00,VWS V14.01,2013-02-14 19:35:00,
2013-02-14 12:40:00,38.0,22.0,30.43,SSW,212,15.0,20.0,52,0.00,,,0.00,VWS V14.01,2013-02-14 19:40:00,
2013-02-14 12:45:00,38.3,22.7,30.43,SW,219,16.0,20.0,53,0.00,,,0.00,VWS V14.01,2013-02-14 19:45:00,
2013-02-14 12:50:00,39.1,22.5,30.43,SW,227,12.0,20.0,51,0.00,,,0.00,VWS V14.01,2013-02-14 19:50:00,
2013-02-14 12:55:00,38.6,21.6,30.43,SSW,205,14.0,20.0,50,0.00,,,0.00,VWS V14.01,2013-02-14 19:55:00,
2013-02-14 13:00:00,38.7,21.7,30.43,WSW,242,15.0,20.0,50,0.00,,,0.00,VWS V14.01,2013-02-14 20:00:00,
2013-02-14 13:05:00,38.8,21.8,30.43,SW,227,8.0,13.0,50,0.00,,,0.00,VWS V14.01,2013-02-14 20:05:00,
2013-02-14 13:10:00,38.5,21.0,30.43,WSW,242,7.0,17.0,49,0.00,,,0.00,VWS V14.01,2013-02-14 20:10:00,
2013-02-14 13:15:00,38.1,20.2,30.43,West,262,13.0,17.0,48,0.00,,,0.00,VWS V14.01,2013-02-14 20:15:00,
2013-02-14 13:20:00,38.0,19.6,30.43,WSW,256,10.0,17.0,47,0.00,,,0.00,VWS V14.01,2013-02-14 20:20:00,
2013-02-14 13:25:00,38.5,20.5,30.42,WSW,242,13.0,17.0,48,0.00,,,0.00,VWS V14.01,2013-02-14 20:25:00,
2013-02-14 13:30:00,38.5,19.5,30.42,WSW,248,11.0,18.0,46,0.00,,,0.00,VWS V14.01,2013-02-14 20:30:00,
2013-02-14 13:35:00,38.4,20.4,30.42,WSW,257,9.0,15.0,48,0.00,,,0.00,VWS V14.01,2013-02-14 20:35:00,
2013-02-14 13:40:00,38.4,19.9,30.41,WSW,239,9.0,13.0,47,0.00,,,0.00,VPLive 1.2.5.27,2013-02-14 20:40:00,
2013-02-14 13:45:00,38.5,20.5,30.41,WSW,238,12.0,18.0,48,0.00,,,0.00,VWS V14.01,2013-02-14 20:45:00,
2013-02-14 13:50:00,38.7,20.2,30.41,SW,219,11.0,18.0,47,0.00,,,0.00,VWS V14.01,2013-02-14 20:50:00,
2013-02-14 13:55:00,38.6,20.1,30.41,WSW,251,12.0,18.0,47,0.00,,,0.00,VWS V14.01,2013-02-14 20:55:00,
2013-02-14 14:00:00,38.4,20.9,30.41,West,274,10.0,18.0,49,0.00,,,0.00,VWS V14.01,2013-02-14 21:00:00,
2013-02-14 14:05:00,38.6,21.1,30.41,WSW,256,15.0,15.0,49,0.00,,,0.00,VWS V14.01,2013-02-14 21:05:00,
2013-02-14 14:10:00,38.8,20.8,30.41,WSW,248,8.0,15.0,48,0.00,,,0.00,VWS V14.01,2013-02-14 21:10:00,
2013-02-14 14:15:00,39.0,21.0,30.42,WSW,240,9.0,15.0,48,0.00,,,0.00,VWS V14.01,2013-02-14 21:15:00,
2013-02-14 14:20:00,38.9,21.4,30.42,WSW,238,5.0,15.0,49,0.00,,,0.00,VWS V14.01,2013-02-14 21:20:00,
2013-02-14 14:25:00,38.9,21.4,30.42,SSW,213,16.0,16.0,49,0.00,,,0.00,VWS V14.01,2013-02-14 21:25:00,
2013-02-14 14:30:00,38.9,20.9,30.42,SW,217,8.0,16.0,48,0.00,,,0.00,VWS V14.01,2013-02-14 21:30:00,
2013-02-14 14:35:00,38.8,20.8,30.42,SW,217,11.0,12.0,48,0.00,,,0.00,VWS V14.01,2013-02-14 21:35:00,
2013-02-14 14:40:00,38.6,21.1,30.42,WSW,246,6.0,12.0,49,0.00,,,0.00,VWS V14.01,2013-02-14 21:40:00,
2013-02-14 14:45:00,38.6,21.6,30.41,West,264,15.0,15.0,50,0.00,,,0.00,VWS V14.01,2013-02-14 21:45:00,
2013-02-14 14:50:00,38.7,21.7,30.41,SW,227,15.0,16.0,50,0.00,,,0.00,VWS V14.01,2013-02-14 21:50:00,
2013-02-14 14:55:00,38.7,21.2,30.42,SW,215,11.0,16.0,49,0.00,,,0.00,VWS V14.01,2013-02-14 21:55:00,
2013-02-14 15:00:00,38.7,20.7,30.42,WSW,257,10.0,19.0,48,0.00,,,0.00,VWS V14.01,2013-02-14 22:00:00,
2013-02-14 15:05:00,38.7,20.2,30.42,West,277,5.0,11.0,47,0.00,,,0.00,VWS V14.01,2013-02-14 22:05:00,
2013-02-14 15:10:00,38.9,19.9,30.42,West,276,4.0,11.0,46,0.00,,,0.00,VWS V14.01,2013-02-14 22:10:00,
2013-02-14 15:15:00,39.2,19.7,30.43,West,275,4.0,12.0,45,0.00,,,0.00,VWS V14.01,2013-02-14 22:15:00,
2013-02-14 15:20:00,39.5,19.9,30.43,West,261,9.0,12.0,45,0.00,,,0.00,VWS V14.01,2013-02-14 22:20:00,
2013-02-14 15:25:00,39.5,19.4,30.43,WSW,254,14.0,17.0,44,0.00,,,0.00,VWS V14.01,2013-02-14 22:25:00,
2013-02-14 15:30:00,39.4,18.8,30.43,WNW,284,13.0,17.0,43,0.00,,,0.00,VWS V14.01,2013-02-14 22:30:00,
2013-02-14 15:35:00,39.2,19.7,30.43,West,262,10.0,13.0,45,0.00,,,0.00,VWS V14.01,2013-02-14 22:35:00,
2013-02-14 15:40:00,39.0,19.5,30.43,West,259,8.0,17.0,45,0.00,,,0.00,VWS V14.01,2013-02-14 22:40:00,
2013-02-14 15:45:00,39.1,19.6,30.43,WSW,258,10.0,17.0,45,0.00,,,0.00,VWS V14.01,2013-02-14 22:45:00,
2013-02-14 15:50:00,39.0,20.0,30.43,WSW,242,9.0,17.0,46,0.00,,,0.00,VWS V14.01,2013-02-14 22:50:00,
2013-02-14 15:55:00,38.8,20.3,30.44,SW,224,7.0,17.0,47,0.00,,,0.00,VWS V14.01,2013-02-14 22:55:00,
2013-02-14 16:00:00,38.8,20.8,30.43,WSW,238,6.0,17.0,48,0.00,,,0.00,VWS V14.01,2013-02-14 23:00:00,
2013-02-14 16:05:00,38.6,21.1,30.43,WSW,241,9.0,11.0,49,0.00,,,0.00,VWS V14.01,2013-02-14 23:05:00,
2013-02-14 16:10:00,38.6,21.6,30.44,SW,221,8.0,13.0,50,0.00,,,0.00,VWS V14.01,2013-02-14 23:10:00,
2013-02-14 16:15:00,38.4,22.3,30.44,SW,216,13.0,13.0,52,0.00,,,0.00,VWS V14.01,2013-02-14 23:15:00,
2013-02-14 16:20:00,38.2,22.1,30.44,SW,224,12.0,16.0,52,0.00,,,0.00,VWS V14.01,2013-02-14 23:20:00,
2013-02-14 16:25:00,38.2,21.7,30.44,SW,217,17.0,19.0,51,0.00,,,0.00,VWS V14.01,2013-02-14 23:25:00,
2013-02-14 16:30:00,38.2,22.6,30.44,SSW,207,19.0,19.0,53,0.00,,,0.00,VWS V14.01,2013-02-14 23:30:00,
2013-02-14 16:35:00,38.3,22.2,30.44,SW,216,19.0,19.0,52,0.00,,,0.00,VWS V14.01,2013-02-14 23:35:00,
2013-02-14 16:40:00,38.8,22.7,30.44,SSW,206,10.0,19.0,52,0.00,,,0.00,VWS V14.01,2013-02-14 23:40:00,
2013-02-14 16:45:00,39.3,22.7,30.44,SSW,210,20.0,20.0,51,0.00,,,0.00,VWS V14.01,2013-02-14 23:45:00,
2013-02-14 16:50:00,39.5,22.9,30.44,SSW,204,10.0,20.0,51,0.00,,,0.00,VWS V14.01,2013-02-14 23:50:00,
2013-02-14 16:55:00,39.6,23.0,30.44,SSW,210,17.0,23.0,51,0.00,,,0.00,VWS V14.01,2013-02-14 23:55:00,
2013-02-14 17:00:00,39.3,22.7,30.44,SSW,194,13.0,23.0,51,0.00,,,0.00,VWS V14.01,2013-02-15 00:00:00,
2013-02-14 17:05:00,39.4,22.8,30.45,SW,223,11.0,20.0,51,0.00,,,0.00,VWS V14.01,2013-02-15 00:05:00,
2013-02-14 17:10:00,38.8,23.1,30.45,SSW,202,12.0,20.0,53,0.00,,,0.00,VWS V14.01,2013-02-15 00:10:00,
2013-02-14 17:15:00,38.4,21.9,30.45,SW,229,6.0,20.0,51,0.00,,,0.00,VWS V14.01,2013-02-15 00:15:00,
2013-02-14 17:20:00,38.1,22.9,30.45,SSW,210,11.0,20.0,54,0.00,,,0.00,VWS V14.01,2013-02-15 00:20:00,
2013-02-14 17:25:00,37.8,23.1,30.45,SW,219,10.0,20.0,55,0.00,,,0.00,VWS V14.01,2013-02-15 00:25:00,
2013-02-14 17:30:00,37.4,23.1,30.45,SW,219,10.0,20.0,56,0.00,,,0.00,VWS V14.01,2013-02-15 00:30:00,
2013-02-14 17:35:00,37.0,22.8,30.45,SSW,213,14.0,16.0,56,0.00,,,0.00,VWS V14.01,2013-02-15 00:35:00,
2013-02-14 17:40:00,37.3,22.6,30.45,SSW,206,14.0,18.0,55,0.00,,,0.00,VWS V14.01,2013-02-15 00:40:00,
2013-02-14 17:45:00,37.3,22.6,30.45,SW,214,16.0,18.0,55,0.00,,,0.00,VWS V14.01,2013-02-15 00:45:00,
2013-02-14 17:50:00,37.3,23.1,30.45,SW,217,10.0,20.0,56,0.00,,,0.00,VWS V14.01,2013-02-15 00:50:00,
2013-02-14 17:55:00,37.0,22.8,30.45,SSW,196,17.0,20.0,56,0.00,,,0.00,VWS V14.01,2013-02-15 00:55:00,
2013-02-14 18:00:00,37.2,22.5,30.45,SW,217,17.0,20.0,55,0.00,,,0.00,VWS V14.01,2013-02-15 01:00:00,
2013-02-14 18:05:00,37.1,22.9,30.45,SW,222,13.0,20.0,56,0.00,,,0.00,VWS V14.01,2013-02-15 01:05:00,
2013-02-14 18:10:00,37.2,22.5,30.45,SSW,200,14.0,20.0,55,0.00,,,0.00,VWS V14.01,2013-02-15 01:10:00,
2013-02-14 18:15:00,37.2,22.5,30.45,SSW,213,10.0,21.0,55,0.00,,,0.00,VWS V14.01,2013-02-15 01:15:00,
2013-02-14 18:20:00,37.1,22.4,30.45,SSW,209,13.0,21.0,55,0.00,,,0.00,VWS V14.01,2013-02-15 01:20:00,
2013-02-14 18:25:00,37.2,22.5,30.45,SSW,204,11.0,21.0,55,0.00,,,0.00,VWS V14.01,2013-02-15 01:25:00,
2013-02-14 18:30:00,37.1,22.9,30.46,SSW,205,12.0,21.0,56,0.00,,,0.00,VWS V14.01,2013-02-15 01:30:00,
2013-02-14 18:35:00,37.0,22.8,30.46,SW,221,12.0,17.0,56,0.00,,,0.00,VWS V14.01,2013-02-15 01:35:00,
2013-02-14 18:40:00,36.7,22.9,30.46,SW,219,14.0,18.0,57,0.00,,,0.00,VWS V14.01,2013-02-15 01:40:00,
2013-02-14 18:45:00,36.6,23.2,30.46,SSW,203,14.0,18.0,58,0.00,,,0.00,VWS V14.01,2013-02-15 01:45:00,
2013-02-14 18:50:00,36.4,23.0,30.46,SSW,202,12.0,18.0,58,0.00,,,0.00,VWS V14.01,2013-02-15 01:50:00,
2013-02-14 18:55:00,36.3,23.4,30.46,SW,232,10.0,18.0,59,0.00,,,0.00,VWS V14.01,2013-02-15 01:55:00,
2013-02-14 19:00:00,36.3,23.4,30.46,South,188,13.0,18.0,59,0.00,,,0.00,VWS V14.01,2013-02-15 02:00:00,
2013-02-14 19:05:00,36.0,23.5,30.46,SW,224,12.0,14.0,60,0.00,,,0.00,VWS V14.01,2013-02-15 02:05:00,
2013-02-14 19:10:00,36.0,23.5,30.46,SSW,209,13.0,17.0,60,0.00,,,0.00,VWS V14.01,2013-02-15 02:10:00,
2013-02-14 19:15:00,36.1,23.2,30.46,SSW,213,13.0,17.0,59,0.00,,,0.00,VWS V14.01,2013-02-15 02:15:00,
2013-02-14 19:20:00,35.9,23.4,30.47,SSW,200,12.0,18.0,60,0.00,,,0.00,VWS V14.01,2013-02-15 02:20:00,
2013-02-14 19:25:00,35.9,23.4,30.47,South,186,12.0,18.0,60,0.00,,,0.00,VWS V14.01,2013-02-15 02:25:00,
2013-02-14 19:30:00,35.7,23.2,30.47,SSW,202,10.0,18.0,60,0.00,,,0.00,VWS V14.01,2013-02-15 02:30:00,
2013-02-14 19:35:00,35.6,23.1,30.47,South,190,12.0,15.0,60,0.00,,,0.00,VWS V14.01,2013-02-15 02:35:00,
2013-02-14 19:40:00,35.3,23.2,30.47,SSW,208,9.0,15.0,61,0.00,,,0.00,VWS V14.01,2013-02-15 02:40:00,
2013-02-14 19:45:00,35.3,23.2,30.47,SSW,196,10.0,15.0,61,0.00,,,0.00,VWS V14.01,2013-02-15 02:45:00,
2013-02-14 19:50:00,35.4,22.9,30.47,SW,215,14.0,16.0,60,0.00,,,0.00,VWS V14.01,2013-02-15 02:50:00,
2013-02-14 19:55:00,35.5,23.0,30.47,South,190,12.0,17.0,60,0.00,,,0.00,VWS V14.01,2013-02-15 02:55:00,
2013-02-14 20:00:00,35.1,23.0,30.47,SW,219,10.0,17.0,61,0.00,,,0.00,VWS V14.01,2013-02-15 03:00:00,
2013-02-14 20:05:00,35.0,22.9,30.48,SSW,213,10.0,13.0,61,0.00,,,0.00,VWS V14.01,2013-02-15 03:05:00,
2013-02-14 20:10:00,34.9,23.2,30.48,SW,214,7.0,13.0,62,0.00,,,0.00,VWS V14.01,2013-02-15 03:10:00,
2013-02-14 20:15:00,34.7,23.0,30.48,SSW,210,11.0,13.0,62,0.00,,,0.00,VWS V14.01,2013-02-15 03:15:00,
2013-02-14 20:20:00,34.7,23.0,30.48,SSW,212,11.0,13.0,62,0.00,,,0.00,VWS V14.01,2013-02-15 03:20:00,
2013-02-14 20:25:00,34.8,23.1,30.49,SSW,203,7.0,13.0,62,0.00,,,0.00,VWS V14.01,2013-02-15 03:25:00,
2013-02-14 20:30:00,34.9,22.8,30.49,South,190,10.0,13.0,61,0.00,,,0.00,VWS V14.01,2013-02-15 03:30:00,
2013-02-14 20:35:00,35.0,22.9,30.49,SW,215,7.0,11.0,61,0.00,,,0.00,VWS V14.01,2013-02-15 03:35:00,
2013-02-14 20:40:00,34.9,22.8,30.49,SSW,204,6.0,13.0,61,0.00,,,0.00,VWS V14.01,2013-02-15 03:40:00,
2013-02-14 20:45:00,34.9,22.8,30.49,SSW,196,9.0,12.0,61,0.00,,,0.00,VPLive 1.2.5.27,2013-02-15 03:45:00,
2013-02-14 20:50:00,34.8,22.7,30.49,SSW,204,11.0,13.0,61,0.00,,,0.00,VWS V14.01,2013-02-15 03:50:00,
2013-02-14 20:55:00,34.9,22.8,30.50,SSW,197,7.0,13.0,61,0.00,,,0.00,VWS V14.01,2013-02-15 03:55:00,
2013-02-14 21:00:00,34.7,22.6,30.50,South,186,11.0,14.0,61,0.00,,,0.00,VWS V14.01,2013-02-15 04:00:00,
2013-02-14 21:05:00,34.6,22.9,30.49,South,188,13.0,15.0,62,0.00,,,0.00,VWS V14.01,2013-02-15 04:05:00,
2013-02-14 21:10:00,34.8,22.7,30.50,South,184,7.0,15.0,61,0.00,,,0.00,VWS V14.01,2013-02-15 04:10:00,
2013-02-14 21:15:00,34.6,22.5,30.50,South,190,9.0,16.0,61,0.00,,,0.00,VWS V14.01,2013-02-15 04:15:00,
2013-02-14 21:20:00,34.4,22.7,30.50,South,182,9.0,17.0,62,0.00,,,0.00,VWS V14.01,2013-02-15 04:20:00,
2013-02-14 21:25:00,34.4,22.7,30.50,South,188,10.0,17.0,62,0.00,,,0.00,VWS V14.01,2013-02-15 04:25:00,
2013-02-14 21:30:00,34.4,23.1,30.51,SSW,195,10.0,17.0,63,0.00,,,0.00,VWS V14.01,2013-02-15 04:30:00,
2013-02-14 21:35:00,34.1,22.8,30.51,SSW,195,9.0,13.0,63,0.00,,,0.00,VWS V14.01,2013-02-15 04:35:00,
2013-02-14 21:40:00,34.1,22.8,30.51,South,191,12.0,14.0,63,0.00,,,0.00,VWS V14.01,2013-02-15 04:40:00,
2013-02-14 21:45:00,34.3,23.0,30.51,South,183,10.0,17.0,63,0.00,,,0.00,VWS V14.01,2013-02-15 04:45:00,
2013-02-14 21:50:00,34.2,22.9,30.51,SSW,212,10.0,18.0,63,0.00,,,0.00,VWS V14.01,2013-02-15 04:50:00,
2013-02-14 21:55:00,34.4,23.1,30.51,South,181,7.0,18.0,63,0.00,,,0.00,VWS V14.01,2013-02-15 04:55:00,
2013-02-14 22:00:00,34.1,22.8,30.51,South,172,7.0,18.0,63,0.00,,,0.00,VWS V14.01,2013-02-15 05:00:00,
2013-02-14 22:05:00,34.1,22.5,30.51,South,180,9.0,14.0,62,0.00,,,0.00,VWS V14.01,2013-02-15 05:05:00,
2013-02-14 22:10:00,34.2,22.5,30.51,South,172,11.0,17.0,62,0.00,,,0.00,VWS V14.01,2013-02-15 05:10:00,
2013-02-14 22:15:00,34.4,22.7,30.51,South,169,6.0,17.0,62,0.00,,,0.00,VWS V14.01,2013-02-15 05:15:00,
2013-02-14 22:20:00,34.4,22.7,30.51,SSE,167,12.0,18.0,62,0.00,,,0.00,VWS V14.01,2013-02-15 05:20:00,
2013-02-14 22:25:00,34.4,22.4,30.51,SSE,166,10.0,18.0,61,0.00,,,0.00,VWS V14.01,2013-02-15 05:25:00,
2013-02-14 22:30:00,34.7,22.2,30.52,SSW,194,9.0,18.0,60,0.00,,,0.00,VWS V14.01,2013-02-15 05:30:00,
2013-02-14 22:35:00,34.7,22.2,30.52,South,183,8.0,15.0,60,0.00,,,0.00,VWS V14.01,2013-02-15 05:35:00,
2013-02-14 22:40:00,34.6,22.5,30.52,South,178,9.0,19.0,61,0.00,,,0.00,VWS V14.01,2013-02-15 05:40:00,
2013-02-14 22:45:00,34.4,22.4,30.52,South,182,6.0,19.0,61,0.00,,,0.00,VWS V14.01,2013-02-15 05:45:00,
2013-02-14 22:50:00,34.4,22.4,30.52,SSE,153,9.0,19.0,61,0.00,,,0.00,VWS V14.01,2013-02-15 05:50:00,
2013-02-14 22:55:00,34.4,22.4,30.52,South,185,11.0,19.0,61,0.00,,,0.00,VWS V14.01,2013-02-15 05:55:00,
2013-02-14 23:00:00,34.4,22.7,30.53,South,179,10.0,19.0,62,0.00,,,0.00,VWS V14.01,2013-02-15 06:00:00,
2013-02-14 23:05:00,34.2,22.5,30.53,South,169,11.0,13.0,62,0.00,,,0.00,VWS V14.01,2013-02-15 06:05:00,
2013-02-14 23:10:00,34.0,22.4,30.53,SSE,160,9.0,15.0,62,0.00,,,0.00,VWS V14.01,2013-02-15 06:10:00,
2013-02-14 23:15:00,34.3,22.3,30.53,South,169,8.0,15.0,61,0.00,,,0.00,VWS V14.01,2013-02-15 06:15:00,
2013-02-14 23:20:00,34.6,22.2,30.53,SSE,160,7.0,16.0,60,0.00,,,0.00,VWS V14.01,2013-02-15 06:20:00,
2013-02-14 23:25:00,34.8,22.3,30.53,SSE,165,8.0,18.0,60,0.00,,,0.00,VWS V14.01,2013-02-15 06:25:00,
2013-02-14 23:30:00,34.7,22.2,30.53,South,188,8.0,18.0,60,0.00,,,0.00,VWS V14.01,2013-02-15 06:30:00,
2013-02-14 23:35:00,34.4,22.4,30.53,South,180,13.0,15.0,61,0.00,,,0.00,VWS V14.01,2013-02-15 06:35:00,
2013-02-14 23:40:00,34.2,22.5,30.54,South,190,9.0,18.0,62,0.00,,,0.00,VWS V14.01,2013-02-15 06:40:00,
2013-02-14 23:45:00,33.9,22.6,30.54,SSE,165,11.0,18.0,63,0.00,,,0.00,VWS V14.01,2013-02-15 06:45:00,
2013-02-14 23:50:00,33.7,22.8,30.54,South,169,12.0,18.0,64,0.00,,,0.00,VWS V14.01,2013-02-15 06:50:00,
2013-02-14 23:55:00,33.5,22.6,30.54,SSW,197,6.0,18.0,64,0.00,,,0.00,VWS V14.01,2013-02-15 06:55:00,